createdAt,value
2019-03-30T00:06:40.251Z,70.60
2019-03-30T00:13:25.180Z,71.30
2019-03-30T00:20:10.803Z,72.10
2019-03-30T00:26:55.721Z,72.60
2019-03-30T00:33:40.583Z,73.20
2019-03-30T00:40:25.984Z,73.10
2019-03-30T00:47:11.042Z,73.50
2019-03-30T00:53:56.167Z,73.00
2019-03-30T01:00:41.442Z,74.50
2019-03-30T01:07:27.294Z,74.80
2019-03-30T01:14:12.258Z,75.50
2019-03-30T01:20:57.606Z,75.10
2019-03-30T01:27:42.538Z,73.50
2019-03-30T01:34:27.471Z,75.70
2019-03-30T01:41:12.331Z,75.90
2019-03-30T01:47:57.298Z,76.00
2019-03-30T01:54:42.176Z,76.90
2019-03-30T02:01:27.457Z,77.00
2019-03-30T02:08:12.363Z,76.90
2019-03-30T02:14:59.574Z,77.40
2019-03-30T02:21:44.449Z,77.90
2019-03-30T02:28:29.308Z,77.90
2019-03-30T02:35:14.336Z,78.10
2019-03-30T02:41:59.269Z,77.20
2019-03-30T02:48:44.202Z,75.90
2019-03-30T02:55:29.080Z,74.90
2019-03-30T03:02:14.213Z,74.80
2019-03-30T03:08:59.208Z,74.60
2019-03-30T03:15:44.336Z,74.90
2019-03-30T03:22:29.266Z,75.60
2019-03-30T03:29:14.123Z,75.10
2019-03-30T03:35:58.990Z,77.20
2019-03-30T03:42:43.919Z,77.00
2019-03-30T03:49:28.943Z,76.70
2019-03-30T03:56:15.456Z,76.00
2019-03-30T04:03:03.063Z,75.90
2019-03-30T04:09:51.324Z,75.90
2019-03-30T04:16:36.324Z,75.90
2019-03-30T04:23:21.780Z,74.90
2019-03-30T04:30:07.452Z,75.30
2019-03-30T04:36:52.389Z,76.20
2019-03-30T04:43:37.328Z,75.80
2019-03-30T04:50:23.263Z,75.90
2019-03-30T04:57:08.202Z,75.80
2019-03-30T05:03:53.284Z,75.60
2019-03-30T05:10:38.266Z,75.30
2019-03-30T05:17:23.131Z,76.30
2019-03-30T05:24:07.986Z,76.00
2019-03-30T05:30:52.936Z,74.30
2019-03-30T05:37:37.806Z,73.40
2019-03-30T05:44:22.796Z,71.90
2019-03-30T05:51:07.727Z,70.20
2019-03-30T05:57:52.671Z,69.70
2019-03-30T06:04:37.606Z,67.50
2019-03-30T06:11:22.778Z,65.50
2019-03-30T06:18:11.164Z,64.10
2019-03-30T06:24:54.351Z,50.30
2019-03-30T06:31:39.218Z,32.10
2019-03-30T06:38:24.672Z,26.90
2019-03-30T06:45:10.678Z,24.60
2019-03-30T06:51:55.596Z,23.70
2019-03-30T06:58:40.797Z,22.40
2019-03-30T07:05:25.970Z,21.20
2019-03-30T07:12:10.918Z,20.10
2019-03-30T07:18:57.894Z,19.40
2019-03-30T07:25:42.763Z,19.00
2019-03-30T07:32:27.635Z,18.80
2019-03-30T07:39:13.581Z,18.40
2019-03-30T07:45:58.614Z,17.80
2019-03-30T07:52:43.486Z,18.50
2019-03-30T07:59:28.446Z,18.20
2019-03-30T08:06:13.426Z,18.20
2019-03-30T08:12:58.408Z,17.90
2019-03-30T08:19:43.288Z,18.10
2019-03-30T08:26:28.229Z,18.00
2019-03-30T08:33:13.106Z,18.10
2019-03-30T08:39:57.977Z,18.00
2019-03-30T08:46:44.064Z,17.70
2019-03-30T08:53:29.105Z,17.40
2019-03-30T09:00:17.122Z,18.00
2019-03-30T09:07:01.998Z,17.50
2019-03-30T09:13:47.016Z,16.80
2019-03-30T09:20:31.890Z,16.30
2019-03-30T09:27:16.758Z,16.50
2019-03-30T09:34:01.623Z,16.70
2019-03-30T09:40:46.492Z,16.50
2019-03-30T09:47:31.368Z,16.60
2019-03-30T09:54:23.656Z,16.70
2019-03-30T10:01:02.798Z,16.40
2019-03-30T10:07:47.671Z,16.30
2019-03-30T10:14:32.706Z,16.60
2019-03-30T10:21:17.766Z,16.60
2019-03-30T10:28:03.451Z,16.40
2019-03-30T10:34:48.555Z,16.60
2019-03-30T10:41:33.426Z,16.40
2019-03-30T10:48:18.366Z,16.90
2019-03-30T10:55:03.315Z,17.90
2019-03-30T11:01:48.246Z,19.20
2019-03-30T11:08:33.115Z,21.20
2019-03-30T11:15:18.083Z,22.20
2019-03-30T11:22:03.437Z,22.80
2019-03-30T11:28:48.519Z,23.30
2019-03-30T11:35:33.854Z,23.40
2019-03-30T11:42:20.243Z,23.00
2019-03-30T11:49:05.187Z,21.70
2019-03-30T11:55:50.461Z,21.10
2019-03-30T12:02:35.603Z,21.80
2019-03-30T12:09:20.549Z,20.70
2019-03-30T12:16:05.798Z,20.60
2019-03-30T12:22:50.864Z,19.20
2019-03-30T12:29:35.863Z,19.80
2019-03-30T12:36:22.850Z,18.80
2019-03-30T12:43:09.233Z,19.80
2019-03-30T12:49:55.081Z,19.80
2019-03-30T12:56:41.058Z,20.10
2019-03-30T13:03:26.028Z,20.20
2019-03-30T13:10:11.318Z,21.00
2019-03-30T13:16:56.315Z,20.80
2019-03-30T13:23:41.189Z,20.60
2019-03-30T13:30:26.051Z,20.60
2019-03-30T13:37:18.828Z,20.70
2019-03-30T13:44:03.964Z,20.60
2019-03-30T13:50:48.942Z,20.40
2019-03-30T13:57:33.815Z,20.90
2019-03-30T14:04:18.776Z,20.50
2019-03-30T14:11:03.788Z,20.60
2019-03-30T14:17:48.681Z,20.40
2019-03-30T14:24:33.618Z,20.40
2019-03-30T14:31:18.779Z,20.30
2019-03-30T14:38:03.719Z,20.30
2019-03-30T14:44:48.755Z,19.90
2019-03-30T14:51:33.839Z,20.20
2019-03-30T14:58:18.708Z,20.40
2019-03-30T15:05:05.394Z,20.40
2019-03-30T15:11:50.408Z,20.60
2019-03-30T15:18:35.385Z,20.00
2019-03-30T15:25:21.605Z,20.60
2019-03-30T15:32:09.694Z,20.60
2019-03-30T15:38:54.695Z,20.90
2019-03-30T15:45:39.563Z,20.50
2019-03-30T15:52:24.889Z,20.60
2019-03-30T15:59:09.905Z,20.80
2019-03-30T16:05:54.910Z,21.00
2019-03-30T16:12:39.784Z,21.00
2019-03-30T16:19:24.651Z,21.10
2019-03-30T16:26:09.658Z,20.30
2019-03-30T16:32:54.590Z,21.10
2019-03-30T16:39:39.484Z,21.20
2019-03-30T16:46:24.736Z,21.20
2019-03-30T16:53:09.746Z,21.30
2019-03-30T16:59:54.687Z,21.60
2019-03-30T17:06:39.638Z,21.70
2019-03-30T17:13:24.516Z,22.20
2019-03-30T17:20:10.550Z,22.50
2019-03-30T17:26:55.483Z,22.50
2019-03-30T17:33:40.624Z,23.30
2019-03-30T17:40:25.545Z,25.40
2019-03-30T17:47:10.651Z,25.70
2019-03-30T17:53:55.643Z,26.80
2019-03-30T18:00:40.648Z,27.10
2019-03-30T18:07:26.068Z,28.00
2019-03-30T18:14:10.988Z,29.00
2019-03-30T18:20:55.927Z,30.20
2019-03-30T18:27:43.555Z,30.30
2019-03-30T18:34:29.171Z,31.60
2019-03-30T18:41:21.518Z,32.70
2019-03-30T18:48:12.401Z,33.90
2019-03-30T18:54:57.925Z,34.10
2019-03-30T19:01:42.926Z,35.10
2019-03-30T19:08:27.790Z,35.80
2019-03-30T19:15:12.932Z,36.00
2019-03-30T19:21:58.050Z,36.10
2019-03-30T19:28:55.695Z,36.80
2019-03-30T19:35:30.074Z,36.40
2019-03-30T19:42:15.901Z,39.40
2019-03-30T19:49:03.733Z,40.70
2019-03-30T19:55:49.734Z,41.00
2019-03-30T20:02:34.824Z,42.70
2019-03-30T20:09:20.950Z,42.50
2019-03-30T20:16:06.468Z,44.00
2019-03-30T20:22:51.570Z,43.60
2019-03-30T20:29:38.492Z,45.60
2019-03-30T20:36:23.567Z,45.40
2019-03-30T20:43:10.090Z,45.70
2019-03-30T20:49:56.031Z,45.60
2019-03-30T20:56:42.927Z,51.80
2019-03-30T21:03:29.036Z,51.80
2019-03-30T21:10:15.228Z,50.90
2019-03-30T21:17:03.563Z,52.90
2019-03-30T21:23:50.563Z,54.30
2019-03-30T21:30:35.829Z,54.10
2019-03-30T21:37:21.809Z,53.90
2019-03-30T21:44:21.097Z,54.30
2019-03-30T21:50:53.690Z,53.90
2019-03-30T21:57:38.998Z,55.40
2019-03-30T22:04:24.537Z,59.00
2019-03-30T22:11:09.965Z,58.50
2019-03-30T22:17:56.191Z,57.20
2019-03-30T22:24:41.875Z,56.60
2019-03-30T22:31:28.778Z,56.70
2019-03-30T22:38:13.846Z,56.40
2019-03-30T22:44:59.516Z,57.00
2019-03-30T22:51:44.873Z,57.70
2019-03-30T22:58:30.616Z,57.20
2019-03-30T23:05:15.640Z,60.20
2019-03-30T23:12:00.622Z,61.80
2019-03-30T23:18:45.710Z,62.20
2019-03-30T23:25:32.493Z,62.10
2019-03-30T23:32:17.931Z,62.40
2019-03-30T23:39:03.455Z,63.10
2019-03-30T23:45:48.450Z,63.10
2019-03-30T23:52:33.307Z,63.60
2019-03-30T23:59:18.179Z,62.80
